Time;durP1;ratioP1;P1;durP2;ratioP2;P2;SDS_P1;SDS_P2;PMS_P1;PMS_P2;Temp;Humidity;BMP_temperature;BMP_pressure;BME280_temperature;BME280_humidity;BME280_pressure;Samples;Min_cycle;Max_cycle;Signal;HPM_P1;HPM_P2
2023/06/16 00:00:37;;;;;;;6.00;2.80;;;;;;;17.77;69.69;101494.06;6195543;23;20016;-79
2023/06/16 00:03:03;;;;;;;7.65;3.30;;;;;;;17.67;71.20;101488.56;6229901;23;20012;-80
2023/06/16 00:05:29;;;;;;;6.00;2.92;;;;;;;17.61;72.00;101503.00;6230290;23;20005;-79
2023/06/16 00:08:00;;;;;;;6.97;2.78;;;;;;;17.63;72.00;101496.31;6227225;23;20011;-80
2023/06/16 00:10:26;;;;;;;5.47;2.80;;;;;;;17.53;71.87;101494.59;6174623;23;20047;-81
2023/06/16 00:12:52;;;;;;;5.78;3.42;;;;;;;17.40;73.09;101495.81;6224410;23;20012;-80
2023/06/16 00:15:17;;;;;;;4.57;2.72;;;;;;;17.36;73.79;101488.81;6203724;23;20325;-81
2023/06/16 00:17:46;;;;;;;5.82;2.95;;;;;;;17.39;73.21;101494.06;6174318;23;20007;-79
2023/06/16 00:20:19;;;;;;;6.25;3.25;;;;;;;17.30;74.14;101492.22;6195401;23;20039;-79
2023/06/16 00:22:47;;;;;;;5.82;2.80;;;;;;;17.21;75.71;101493.97;6219735;23;20016;-79
2023/06/16 00:25:18;;;;;;;11.38;3.08;;;;;;;17.24;75.44;101492.81;6218896;23;20035;-79
2023/06/16 00:27:44;;;;;;;7.35;3.30;;;;;;;17.20;74.69;101488.56;6218526;23;20058;-79
2023/06/16 00:30:10;;;;;;;3.60;2.80;;;;;;;17.24;76.34;101498.34;6218618;23;20012;-78
2023/06/16 00:32:36;;;;;;;8.43;2.88;;;;;;;17.19;74.70;101489.63;6192917;23;20020;-80
2023/06/16 00:35:01;;;;;;;5.35;2.92;;;;;;;17.05;78.27;101494.59;6245316;23;20043;-80
2023/06/16 00:37:27;;;;;;;7.35;3.00;;;;;;;17.09;77.25;101496.03;6193467;23;20040;-80
2023/06/16 00:39:53;;;;;;;6.95;3.25;;;;;;;17.20;74.48;101491.34;6218511;23;20087;-80
2023/06/16 00:42:19;;;;;;;6.55;3.15;;;;;;;17.16;74.31;101485.25;6217635;23;20046;-80
2023/06/16 00:44:44;;;;;;;12.68;3.60;;;;;;;17.17;73.51;101492.53;6192764;23;20012;-79
2023/06/16 00:47:10;;;;;;;5.95;3.00;;;;;;;17.11;78.14;101490.34;6219241;23;20024;-80
2023/06/16 00:49:36;;;;;;;7.47;3.53;;;;;;;17.09;74.38;101490.50;6168809;23;20008;-79
2023/06/16 00:52:05;;;;;;;8.40;3.45;;;;;;;17.11;73.92;101495.88;6192970;23;20082;-80
2023/06/16 00:54:32;;;;;;;6.95;3.35;;;;;;;17.08;74.92;101494.28;6192487;23;20038;-81
2023/06/16 00:56:58;;;;;;;3.63;3.05;;;;;;;16.91;77.26;101483.97;6193200;23;20432;-80
2023/06/16 00:59:26;;;;;;;6.28;3.42;;;;;;;16.87;78.07;101479.75;6194242;23;20826;-80
2023/06/16 01:01:52;;;;;;;6.95;3.30;;;;;;;16.84;77.83;101478.13;6193760;23;20023;-81
2023/06/16 01:04:20;;;;;;;5.57;3.28;;;;;;;16.71;79.03;101475.66;6219840;23;20004;-80
2023/06/16 01:06:58;;;;;;;5.25;3.25;;;;;;;16.79;76.26;101479.56;6192714;23;20853;-79
2023/06/16 01:09:35;;;;;;;4.75;2.97;;;;;;;16.80;76.17;101478.56;6192920;23;20005;-80
2023/06/16 01:12:11;;;;;;;8.65;3.25;;;;;;;16.65;76.73;101478.16;6244001;23;20016;-80
2023/06/16 01:14:58;;;;;;;5.13;3.53;;;;;;;16.60;78.36;101474.94;6218403;23;20012;-80
2023/06/16 01:17:28;;;;;;;8.43;3.30;;;;;;;16.69;76.58;101471.28;6216567;23;20008;-80
2023/06/16 01:20:42;;;;;;;5.65;3.47;;;;;;;16.46;79.85;101471.59;6217457;23;20031;-80
2023/06/16 01:23:20;;;;;;;8.07;3.25;;;;;;;16.66;77.84;101480.78;6125476;23;20008;-80
2023/06/16 01:25:48;;;;;;;7.95;3.28;;;;;;;16.61;79.19;101483.09;6218082;23;20052;-80
2023/06/16 01:28:18;;;;;;;4.10;3.20;;;;;;;16.53;80.27;101478.28;6192685;23;20013;-79
2023/06/16 01:30:46;;;;;;;7.10;3.15;;;;;;;16.30;81.98;101474.94;6243480;23;20103;-79
2023/06/16 01:33:13;;;;;;;4.13;3.08;;;;;;;16.45;79.49;101482.81;6191145;23;20063;-78
2023/06/16 01:35:40;;;;;;;6.60;3.10;;;;;;;16.38;81.22;101481.63;6217713;23;20012;-79
2023/06/16 01:38:07;;;;;;;4.18;3.60;;;;;;;16.35;81.40;101489.19;6243799;23;20336;-79
2023/06/16 01:40:34;;;;;;;5.40;3.33;;;;;;;16.29;81.33;101489.75;6218405;23;20016;-80
2023/06/16 01:43:01;;;;;;;6.20;3.53;;;;;;;16.26;82.40;101484.50;6195120;23;20042;-79
2023/06/16 01:45:29;;;;;;;6.70;3.72;;;;;;;16.27;79.96;101490.94;6219131;23;20062;-79
2023/06/16 01:47:55;;;;;;;5.97;3.58;;;;;;;16.28;79.09;101484.38;6220229;23;20400;-79
2023/06/16 01:50:21;;;;;;;5.10;3.50;;;;;;;16.26;80.79;101483.66;6246622;23;20027;-80
2023/06/16 01:52:46;;;;;;;12.13;3.40;;;;;;;16.31;78.53;101481.31;6216462;23;20091;-80
2023/06/16 01:55:12;;;;;;;6.90;3.33;;;;;;;16.25;81.01;101482.78;6225583;23;20009;-79
2023/06/16 01:57:38;;;;;;;7.32;3.42;;;;;;;16.22;79.47;101484.97;6189643;23;20050;-79
2023/06/16 02:00:15;;;;;;;11.70;3.13;;;;;;;16.30;78.42;101477.69;6188911;23;20024;-79
2023/06/16 02:02:47;;;;;;;8.60;3.40;;;;;;;16.18;82.18;101470.53;6214071;23;20062;-79
2023/06/16 02:05:16;;;;;;;12.43;4.13;;;;;;;16.27;79.25;101477.13;6215759;23;20012;-79
2023/06/16 02:07:44;;;;;;;7.50;3.38;;;;;;;16.21;81.45;101483.22;6214678;23;20032;-78
2023/06/16 02:10:12;;;;;;;7.28;3.03;;;;;;;16.19;81.70;101474.19;6214233;23;20096;-80
2023/06/16 02:12:38;;;;;;;7.82;3.50;;;;;;;16.17;79.74;101477.09;6214795;23;20036;-79
2023/06/16 02:15:04;;;;;;;8.55;3.53;;;;;;;16.06;81.28;101475.31;6188676;23;20428;-79
2023/06/16 02:17:30;;;;;;;7.32;3.50;;;;;;;16.08;80.76;101486.22;6140179;23;20013;-79
2023/06/16 02:19:55;;;;;;;5.47;3.25;;;;;;;15.98;82.91;101476.03;6213639;23;20017;-78
2023/06/16 02:22:21;;;;;;;6.70;3.85;;;;;;;15.91;83.78;101474.84;6188948;23;20009;-79
2023/06/16 02:24:49;;;;;;;6.75;3.97;;;;;;;15.95;82.03;101470.81;6214114;23;20020;-80
2023/06/16 02:27:15;;;;;;;5.63;3.40;;;;;;;15.94;82.04;101476.47;6163501;23;20070;-79
2023/06/16 02:29:41;;;;;;;13.35;3.72;;;;;;;15.93;82.65;101472.81;6213492;23;20038;-80
2023/06/16 02:32:07;;;;;;;7.68;3.83;;;;;;;15.87;83.27;101469.75;6188287;23;20013;-79
2023/06/16 02:34:34;;;;;;;5.40;3.65;;;;;;;15.92;83.92;101470.19;6215932;23;20309;-80
2023/06/16 02:37:00;;;;;;;4.45;3.70;;;;;;;15.80;84.09;101472.19;6215454;23;20013;-79
2023/06/16 02:39:26;;;;;;;5.03;3.75;;;;;;;15.67;83.97;101468.78;6188833;23;20094;-79
2023/06/16 02:41:51;;;;;;;5.68;3.55;;;;;;;15.71;85.01;101467.47;6189053;23;20009;-80
2023/06/16 02:44:17;;;;;;;4.70;3.75;;;;;;;15.65;86.14;101473.56;6213453;23;20012;-79
2023/06/16 02:46:43;;;;;;;4.22;3.83;;;;;;;15.68;84.89;101473.31;6213916;23;20008;-79
2023/06/16 02:49:08;;;;;;;6.30;4.60;;;;;;;15.67;86.18;101477.06;6189825;23;20015;-81
2023/06/16 02:51:34;;;;;;;9.77;3.70;;;;;;;15.56;88.00;101475.25;6169023;23;20009;-81
2023/06/16 02:54:00;;;;;;;10.70;4.63;;;;;;;15.60;85.42;101474.00;6196029;23;20039;-80
2023/06/16 02:56:28;;;;;;;9.63;4.28;;;;;;;15.52;87.84;101471.06;6223560;23;20065;-80
2023/06/16 02:58:53;;;;;;;11.25;3.95;;;;;;;15.58;86.45;101476.03;6195929;23;20425;-80
2023/06/16 03:01:21;;;;;;;4.88;3.95;;;;;;;15.56;85.85;101475.25;6195408;23;20016;-81
2023/06/16 03:03:48;;;;;;;7.45;4.50;;;;;;;15.53;85.45;101470.91;6200135;23;20032;-80
2023/06/16 03:06:14;;;;;;;8.65;4.15;;;;;;;15.57;86.47;101471.50;6224713;23;20026;-80
2023/06/16 03:08:39;;;;;;;5.75;4.05;;;;;;;15.60;85.84;101479.50;6199235;23;20013;-79
2023/06/16 03:11:05;;;;;;;8.05;4.28;;;;;;;15.56;85.97;101478.91;6222930;23;20011;-79
2023/06/16 03:13:30;;;;;;;6.20;4.30;;;;;;;15.50;86.79;101470.31;6190991;23;20119;-80
2023/06/16 03:15:57;;;;;;;6.75;4.38;;;;;;;15.57;87.54;101482.53;6165346;23;20015;-80
2023/06/16 03:18:23;;;;;;;18.05;4.22;;;;;;;15.50;88.12;101478.59;6189739;23;20016;-78
2023/06/16 03:20:48;;;;;;;6.70;4.10;;;;;;;15.43;88.40;101484.66;6213866;23;20016;-80
2023/06/16 03:23:14;;;;;;;10.60;4.13;;;;;;;15.50;88.07;101485.00;6164225;23;20421;-80
2023/06/16 03:25:40;;;;;;;7.32;4.82;;;;;;;15.51;87.66;101478.47;6163834;23;20012;-80
2023/06/16 03:28:09;;;;;;;10.40;5.25;;;;;;;15.55;86.65;101479.91;6214790;23;20063;-79
2023/06/16 03:30:35;;;;;;;11.50;4.10;;;;;;;15.43;86.32;101465.34;6188883;23;20479;-80
2023/06/16 03:33:01;;;;;;;7.95;4.25;;;;;;;15.32;87.15;101478.38;6164809;23;20017;-81
2023/06/16 03:35:26;;;;;;;11.30;4.20;;;;;;;15.09;89.81;101475.78;6188160;23;20079;-80
2023/06/16 03:37:52;;;;;;;8.30;4.78;;;;;;;15.15;90.71;101479.84;6187295;23;20347;-81
2023/06/16 03:40:17;;;;;;;16.80;5.03;;;;;;;15.03;92.43;101476.31;6185419;23;20015;-80
2023/06/16 03:42:43;;;;;;;6.20;4.82;;;;;;;15.12;90.92;101472.75;6211584;23;20082;-81
2023/06/16 03:45:09;;;;;;;9.70;4.25;;;;;;;15.09;91.55;101483.19;6187758;23;20009;-80
2023/06/16 03:47:35;;;;;;;5.95;4.35;;;;;;;15.18;90.56;101474.06;6188920;23;20016;-79
2023/06/16 03:50:02;;;;;;;6.40;4.57;;;;;;;15.13;93.09;101482.75;6163705;23;20020;-80
2023/06/16 03:52:29;;;;;;;7.55;4.20;;;;;;;15.19;91.03;101478.59;6189114;23;20036;-80
2023/06/16 03:54:54;;;;;;;6.90;5.30;;;;;;;15.35;90.96;101475.34;6215695;23;20040;-80
2023/06/16 03:57:20;;;;;;;14.25;4.82;;;;;;;15.26;89.71;101477.00;6213575;23;20043;-79
2023/06/16 03:59:47;;;;;;;10.88;4.70;;;;;;;15.29;90.46;101476.75;6188574;23;20089;-80
2023/06/16 04:02:13;;;;;;;8.60;4.68;;;;;;;15.28;90.65;101476.88;6213289;23;20027;-81
2023/06/16 04:04:38;;;;;;;5.50;4.28;;;;;;;15.25;91.41;101478.03;6217627;23;20040;-81
2023/06/16 04:07:05;;;;;;;14.18;5.38;;;;;;;15.31;90.26;101484.88;6214975;23;20095;-78
2023/06/16 04:09:30;;;;;;;8.48;5.20;;;;;;;15.18;91.02;101476.81;6214789;23;20043;-79
2023/06/16 04:11:57;;;;;;;8.07;5.07;;;;;;;15.11;91.69;101484.78;6214864;23;20013;-78
2023/06/16 04:14:22;;;;;;;12.30;5.13;;;;;;;15.05;91.33;101485.31;6218740;23;20056;-78
2023/06/16 04:16:48;;;;;;;10.20;5.03;;;;;;;15.10;92.75;101484.91;6218342;23;20005;-79
2023/06/16 04:19:15;;;;;;;15.05;6.07;;;;;;;14.97;93.75;101490.63;6213287;23;20598;-79
2023/06/16 04:21:41;;;;;;;6.43;4.93;;;;;;;15.01;94.42;101495.75;6186243;23;20420;-79
2023/06/16 04:24:07;;;;;;;10.45;5.63;;;;;;;15.07;95.48;101491.59;6188106;23;20092;-79
2023/06/16 04:26:33;;;;;;;16.77;5.65;;;;;;;15.22;95.69;101492.09;6187389;23;20416;-79
2023/06/16 04:29:03;;;;;;;11.88;4.75;;;;;;;15.25;96.41;101492.72;6184574;23;20027;-80
2023/06/16 04:31:31;;;;;;;13.05;5.45;;;;;;;15.39;95.24;101487.84;6211498;23;20017;-79
2023/06/16 04:33:58;;;;;;;8.95;5.03;;;;;;;15.55;94.21;101496.47;6192933;23;20493;-79
2023/06/16 04:36:25;;;;;;;13.32;5.53;;;;;;;15.67;93.95;101494.50;6217009;23;20080;-78
2023/06/16 04:38:53;;;;;;;11.68;5.25;;;;;;;15.78;92.18;101486.16;6190585;23;20016;-78
2023/06/16 04:41:19;;;;;;;10.05;5.80;;;;;;;15.89;93.29;101496.22;6218319;23;20017;-78
2023/06/16 04:43:44;;;;;;;12.60;5.40;;;;;;;15.88;92.44;101499.97;6190428;23;20142;-79
2023/06/16 04:46:10;;;;;;;11.10;5.53;;;;;;;15.82;92.16;101503.31;6218367;23;20016;-79
2023/06/16 04:48:37;;;;;;;8.30;5.47;;;;;;;15.97;92.19;101498.25;6164965;23;20660;-79
2023/06/16 04:51:02;;;;;;;10.98;5.97;;;;;;;16.07;90.98;101504.72;6188818;23;20094;-80
2023/06/16 04:53:28;;;;;;;11.73;5.15;;;;;;;16.14;92.38;101500.34;6214916;22;20032;-80
2023/06/16 04:55:54;;;;;;;12.50;5.18;;;;;;;16.26;87.07;101505.75;6179755;23;20028;-78
2023/06/16 04:58:20;;;;;;;11.23;5.18;;;;;;;16.21;89.23;101508.06;6233109;23;20013;-77
2023/06/16 05:00:46;;;;;;;12.60;5.70;;;;;;;16.27;90.84;101505.63;6229257;23;20028;-78
2023/06/16 05:03:12;;;;;;;12.20;5.22;;;;;;;16.34;88.47;101498.47;6232808;23;20005;-77
2023/06/16 05:05:37;;;;;;;11.25;6.25;;;;;;;16.37;87.77;101496.47;6233007;23;20008;-77
2023/06/16 05:08:03;;;;;;;10.00;5.10;;;;;;;16.48;85.13;101505.50;6230519;23;20040;-78
2023/06/16 05:10:28;;;;;;;7.63;5.20;;;;;;;16.60;87.40;101509.00;6203852;23;20428;-77
2023/06/16 05:12:54;;;;;;;20.05;5.80;;;;;;;16.62;86.38;101504.19;6202427;23;20019;-78
2023/06/16 05:15:19;;;;;;;8.23;5.00;;;;;;;16.76;85.58;101502.88;6204607;23;20016;-77
2023/06/16 05:17:45;;;;;;;13.80;5.60;;;;;;;16.79;87.36;101510.91;6229020;23;20000;-78
2023/06/16 05:20:11;;;;;;;9.98;5.25;;;;;;;17.07;83.87;101506.38;6227635;23;20073;-78
2023/06/16 05:22:36;;;;;;;9.88;5.13;;;;;;;17.38;81.16;101511.72;6230330;23;20031;-77
2023/06/16 05:25:02;;;;;;;8.13;5.13;;;;;;;17.39;80.33;101499.59;6205644;23;20048;-78
2023/06/16 05:27:27;;;;;;;12.80;6.22;;;;;;;17.64;80.62;101513.78;6204052;23;20036;-78
2023/06/16 05:29:54;;;;;;;9.00;5.68;;;;;;;17.79;78.15;101512.28;6225663;23;20004;-79
2023/06/16 05:32:21;;;;;;;7.15;5.03;;;;;;;18.01;78.08;101512.94;6224968;23;20020;-78
2023/06/16 05:34:51;;;;;;;11.98;5.15;;;;;;;18.21;76.44;101510.91;6226869;23;20009;-77
2023/06/16 05:37:18;;;;;;;9.00;5.43;;;;;;;18.58;72.82;101509.94;6228164;23;20008;-78
2023/06/16 05:39:44;;;;;;;8.20;6.50;;;;;;;18.52;74.25;101511.44;6226472;23;20008;-78
2023/06/16 05:42:14;;;;;;;8.77;5.93;;;;;;;19.16;70.80;101513.25;6226484;23;20064;-78
2023/06/16 05:44:43;;;;;;;13.07;6.60;;;;;;;19.11;69.85;101522.06;6227749;23;20008;-80
2023/06/16 05:47:10;;;;;;;12.43;6.88;;;;;;;19.27;69.54;101524.09;6232482;23;20052;-80
2023/06/16 05:49:36;;;;;;;9.77;6.40;;;;;;;19.80;68.53;101524.97;6212736;23;20005;-79
2023/06/16 05:52:03;;;;;;;8.93;6.57;;;;;;;20.52;64.44;101535.69;6215831;22;20012;-79
2023/06/16 05:54:29;;;;;;;15.40;6.72;;;;;;;20.54;64.75;101531.66;6185649;23;20377;-79
2023/06/16 05:56:58;;;;;;;14.00;6.00;;;;;;;20.58;63.87;101529.44;6214398;23;20019;-79
2023/06/16 05:59:26;;;;;;;6.60;5.60;;;;;;;20.46;65.37;101528.00;6229169;23;20004;-79
2023/06/16 06:01:53;;;;;;;7.38;6.60;;;;;;;20.55;63.92;101530.63;6224852;23;20008;-81
2023/06/16 06:04:30;;;;;;;10.63;6.10;;;;;;;20.37;64.07;101532.69;6198484;23;20043;-82
2023/06/16 06:06:56;;;;;;;8.65;5.97;;;;;;;20.71;63.41;101540.06;6237532;23;20035;-81
2023/06/16 06:09:22;;;;;;;10.00;5.47;;;;;;;21.17;61.75;101539.59;6231396;23;20008;-80
2023/06/16 06:11:48;;;;;;;10.07;5.53;;;;;;;21.39;60.97;101536.09;6220033;23;20012;-84
2023/06/16 06:14:14;;;;;;;13.65;5.93;;;;;;;21.06;61.82;101543.59;6219849;23;20019;-82
2023/06/16 06:16:39;;;;;;;6.97;5.82;;;;;;;21.03;61.91;101544.81;6170446;23;20011;-81
2023/06/16 06:19:04;;;;;;;9.00;5.57;;;;;;;21.81;58.99;101542.50;6219952;23;20013;-82
2023/06/16 06:21:30;;;;;;;10.13;5.47;;;;;;;22.50;53.09;101544.69;6195495;23;20015;-80
2023/06/16 06:23:56;;;;;;;11.88;6.05;;;;;;;22.54;54.56;101548.81;6169968;23;20027;-82
2023/06/16 06:26:21;;;;;;;8.30;5.95;;;;;;;22.51;54.00;101544.50;6170924;23;20040;-83
2023/06/16 06:28:47;;;;;;;7.70;5.97;;;;;;;23.34;51.75;101553.13;6220880;23;20023;-82
2023/06/16 06:31:12;;;;;;;8.95;5.72;;;;;;;22.92;50.76;101554.50;6171636;23;20062;-83
2023/06/16 06:33:38;;;;;;;8.50;6.10;;;;;;;23.08;52.07;101554.41;6171289;23;20729;-83
2023/06/16 06:36:03;;;;;;;8.27;5.00;;;;;;;23.58;50.47;101553.94;6169475;23;20047;-81
2023/06/16 06:38:29;;;;;;;9.88;5.70;;;;;;;23.51;50.31;101564.16;6202142;23;20062;-80
2023/06/16 06:40:55;;;;;;;10.82;5.80;;;;;;;23.22;49.05;101563.91;6258003;23;20079;-79
2023/06/16 06:43:20;;;;;;;16.23;5.45;;;;;;;23.37;49.50;101563.94;6205469;23;20023;-80
2023/06/16 06:45:48;;;;;;;11.48;4.85;;;;;;;23.54;46.29;101559.06;6256615;23;20008;-81
2023/06/16 06:48:13;;;;;;;11.60;5.20;;;;;;;24.16;46.54;101560.66;6205280;23;20040;-79
2023/06/16 06:50:39;;;;;;;5.63;4.97;;;;;;;25.04;43.08;101573.78;6203368;23;20354;-81
2023/06/16 06:53:04;;;;;;;12.52;5.20;;;;;;;24.88;43.77;101563.72;6223065;23;20070;-81
2023/06/16 06:55:30;;;;;;;6.55;4.57;;;;;;;24.44;43.76;101567.50;6167434;23;20098;-79
2023/06/16 06:57:55;;;;;;;4.63;4.22;;;;;;;24.58;42.00;101569.44;6188606;23;20108;-82
2023/06/16 07:00:21;;;;;;;10.27;4.97;;;;;;;24.71;43.95;101563.09;6217632;23;20008;-80
2023/06/16 07:02:46;;;;;;;12.73;4.28;;;;;;;24.77;41.42;101570.72;6187717;23;20447;-81
2023/06/16 07:05:12;;;;;;;5.45;3.90;;;;;;;25.35;40.96;101565.09;6190860;23;20012;-79
2023/06/16 07:07:38;;;;;;;13.30;4.70;;;;;;;24.79;40.68;101570.50;6214196;23;20016;-81
2023/06/16 07:10:05;;;;;;;12.57;4.65;;;;;;;26.25;37.99;101565.28;6162952;23;20009;-79
2023/06/16 07:12:31;;;;;;;11.07;4.28;;;;;;;25.67;39.12;101571.16;6189033;23;20013;-80
2023/06/16 07:14:56;;;;;;;11.95;4.95;;;;;;;25.49;40.09;101566.06;6212257;23;20087;-80
2023/06/16 07:17:22;;;;;;;7.88;4.30;;;;;;;25.74;39.11;101563.66;6187225;23;20036;-79
2023/06/16 07:19:47;;;;;;;12.13;4.15;;;;;;;26.06;38.31;101572.53;6163234;23;20317;-79
2023/06/16 07:22:13;;;;;;;6.05;4.15;;;;;;;26.39;37.58;101571.84;6214522;23;20455;-79
2023/06/16 07:24:38;;;;;;;5.18;4.35;;;;;;;26.31;37.71;101572.03;6213206;23;20013;-80
2023/06/16 07:27:04;;;;;;;9.75;4.90;;;;;;;26.32;36.44;101573.78;6139255;23;20019;-79
2023/06/16 07:29:30;;;;;;;10.07;4.80;;;;;;;25.92;35.50;101577.16;6187816;23;20012;-80
2023/06/16 07:31:55;;;;;;;6.13;4.28;;;;;;;26.08;37.07;101573.19;6163510;23;20576;-80
2023/06/16 07:34:21;;;;;;;5.03;3.95;;;;;;;26.27;36.46;101570.69;6215823;23;20470;-81
2023/06/16 07:36:46;;;;;;;5.32;4.10;;;;;;;26.58;34.16;101572.97;6211150;23;20009;-79
2023/06/16 07:39:12;;;;;;;8.52;4.40;;;;;;;26.57;34.96;101574.94;6213099;23;20024;-79
2023/06/16 07:41:38;;;;;;;7.15;3.65;;;;;;;25.98;36.04;101573.56;6212175;23;20493;-79
2023/06/16 07:44:05;;;;;;;7.03;4.38;;;;;;;27.03;33.66;101584.63;6187884;23;20019;-80
2023/06/16 07:46:32;;;;;;;7.57;3.97;;;;;;;26.93;33.27;101579.41;6212462;23;20015;-79
2023/06/16 07:48:57;;;;;;;11.50;4.35;;;;;;;27.22;31.95;101577.31;6187992;23;20055;-79
2023/06/16 07:51:23;;;;;;;6.95;4.05;;;;;;;26.21;33.21;101583.63;6163096;23;20083;-79
2023/06/16 07:53:49;;;;;;;6.25;3.42;;;;;;;26.57;32.81;101577.75;6236718;22;20020;-80
2023/06/16 07:56:16;;;;;;;10.45;3.97;;;;;;;27.20;32.19;101570.16;6217536;23;20008;-79
2023/06/16 07:58:41;;;;;;;10.15;4.15;;;;;;;26.89;33.30;101572.50;6193009;23;20032;-79
2023/06/16 08:01:10;;;;;;;6.95;3.35;;;;;;;27.48;32.50;101572.78;6195442;23;20066;-81
2023/06/16 08:03:36;;;;;;;8.82;4.10;;;;;;;27.73;32.92;101572.13;6224050;23;20008;-81
2023/06/16 08:06:03;;;;;;;6.82;3.45;;;;;;;27.60;31.37;101573.03;6260611;23;20533;-82
2023/06/16 08:08:28;;;;;;;7.38;3.65;;;;;;;27.73;29.05;101569.31;6227364;23;20007;-81
2023/06/16 08:10:58;;;;;;;10.10;3.30;;;;;;;28.10;29.34;101572.53;6221570;23;20447;-80
2023/06/16 08:13:27;;;;;;;5.03;3.35;;;;;;;26.57;30.89;101566.50;6218181;23;20004;-80
2023/06/16 08:15:52;;;;;;;5.47;3.45;;;;;;;27.27;31.14;101569.09;6194212;23;20067;-81
2023/06/16 08:18:19;;;;;;;12.20;3.40;;;;;;;27.68;30.06;101567.19;6217841;23;20015;-81
2023/06/16 08:20:47;;;;;;;6.57;2.67;;;;;;;28.51;28.13;101571.31;6193180;23;20019;-80
2023/06/16 08:23:14;;;;;;;4.28;2.92;;;;;;;28.58;29.55;101567.41;6245051;23;20023;-80
2023/06/16 08:25:40;;;;;;;6.50;3.35;;;;;;;28.63;27.47;101569.56;6192778;23;20012;-81
2023/06/16 08:28:07;;;;;;;7.47;2.80;;;;;;;28.60;27.82;101570.84;6191651;23;20032;-80
2023/06/16 08:30:34;;;;;;;6.28;3.55;;;;;;;27.47;30.08;101562.63;6193034;23;20030;-80
2023/06/16 08:32:59;;;;;;;8.05;2.70;;;;;;;28.53;29.49;101566.28;6217710;23;20111;-80
2023/06/16 08:35:25;;;;;;;6.57;2.92;;;;;;;27.69;29.58;101557.63;6192215;23;20404;-80
2023/06/16 08:37:50;;;;;;;7.50;2.58;;;;;;;28.59;28.83;101566.28;6192136;23;20094;-80
2023/06/16 08:40:16;;;;;;;9.45;3.60;;;;;;;27.98;29.71;101558.28;6192051;23;20024;-80
2023/06/16 08:42:43;;;;;;;6.90;2.50;;;;;;;28.12;30.72;101556.28;6217649;23;20019;-80
2023/06/16 08:45:09;;;;;;;4.93;2.30;;;;;;;28.46;29.98;101559.84;6217760;23;20089;-80
2023/06/16 08:47:38;;;;;;;7.30;2.50;;;;;;;29.01;28.02;101559.34;6216963;23;20004;-81
2023/06/16 08:50:05;;;;;;;3.50;1.90;;;;;;;29.21;28.31;101564.88;6215262;23;20004;-80
2023/06/16 08:52:40;;;;;;;8.55;2.33;;;;;;;28.23;29.06;101564.03;6191275;23;20295;-80
2023/06/16 08:55:12;;;;;;;9.80;2.80;;;;;;;29.53;26.73;101562.84;6242493;23;20008;-81
2023/06/16 08:57:46;;;;;;;8.48;2.95;;;;;;;28.80;27.27;101554.94;6242888;23;20087;-81
2023/06/16 09:00:13;;;;;;;3.38;2.20;;;;;;;28.49;28.25;101562.22;6242025;23;20084;-81
2023/06/16 09:02:41;;;;;;;4.50;2.13;;;;;;;28.69;29.06;101557.34;6192500;23;20091;-81
2023/06/16 09:05:08;;;;;;;6.05;2.17;;;;;;;29.94;26.61;101558.59;6192105;23;20122;-80
2023/06/16 09:07:35;;;;;;;4.55;2.20;;;;;;;28.89;27.67;101557.25;6242544;23;20095;-81
2023/06/16 09:10:00;;;;;;;2.05;1.90;;;;;;;28.92;27.41;101565.25;6216063;23;20082;-81
2023/06/16 09:12:27;;;;;;;5.85;2.17;;;;;;;28.04;27.98;101558.25;6244178;23;20488;-81
2023/06/16 09:14:53;;;;;;;6.13;2.60;;;;;;;28.22;28.45;101560.38;6244529;23;20030;-81
2023/06/16 09:17:24;;;;;;;4.75;2.13;;;;;;;28.86;27.05;101559.66;6192539;23;20012;-81
2023/06/16 09:19:52;;;;;;;3.22;2.10;;;;;;;29.06;27.86;101565.19;6217470;23;20004;-81
2023/06/16 09:22:19;;;;;;;2.38;1.90;;;;;;;30.30;26.42;101561.66;6218350;23;20019;-80
2023/06/16 09:25:04;;;;;;;2.42;2.22;;;;;;;29.33;27.46;101563.03;6191821;23;20064;-81
2023/06/16 09:27:46;;;;;;;5.00;2.10;;;;;;;28.61;26.09;101568.88;6217587;23;20424;-80
2023/06/16 09:30:18;;;;;;;4.65;2.03;;;;;;;28.17;28.12;101559.28;6219637;23;20000;-80
2023/06/16 09:32:48;;;;;;;4.78;2.42;;;;;;;29.28;26.42;101560.03;6244679;23;20008;-81
2023/06/16 09:35:17;;;;;;;4.28;2.15;;;;;;;28.79;29.29;101556.88;6244463;23;20447;-80
2023/06/16 09:37:44;;;;;;;6.35;2.22;;;;;;;29.80;27.41;101560.69;6244349;23;20023;-81
2023/06/16 09:40:11;;;;;;;6.57;2.35;;;;;;;29.12;27.54;101555.78;6192771;23;20012;-81
2023/06/16 09:42:40;;;;;;;5.70;2.17;;;;;;;28.55;28.76;101550.06;6191705;23;20019;-81
2023/06/16 09:45:14;;;;;;;5.70;2.08;;;;;;;29.02;28.12;101550.66;6191634;23;20003;-81
2023/06/16 09:47:50;;;;;;;5.40;1.88;;;;;;;30.59;25.13;101558.03;6217621;23;20458;-81
2023/06/16 09:50:17;;;;;;;4.57;2.10;;;;;;;29.80;26.22;101560.69;6191799;23;20008;-81
2023/06/16 09:52:44;;;;;;;5.18;2.38;;;;;;;29.52;26.18;101549.88;6216119;23;20018;-81
2023/06/16 09:55:13;;;;;;;3.65;2.00;;;;;;;28.77;28.34;101553.41;6167081;23;20432;-81
2023/06/16 09:57:42;;;;;;;4.65;2.03;;;;;;;29.37;27.23;101557.78;6167634;23;20008;-79
2023/06/16 10:00:13;;;;;;;2.42;2.05;;;;;;;29.36;26.20;101545.66;6243848;23;20355;-80
2023/06/16 10:02:50;;;;;;;4.93;2.00;;;;;;;30.02;26.14;101547.00;6245562;23;20016;-80
2023/06/16 10:05:18;;;;;;;6.25;2.10;;;;;;;28.83;27.36;101543.19;6219152;23;20012;-80
2023/06/16 10:07:48;;;;;;;4.22;2.28;;;;;;;29.31;26.39;101542.66;6219354;23;20016;-81
2023/06/16 10:10:15;;;;;;;5.18;2.25;;;;;;;29.34;25.93;101539.38;6218796;23;20000;-80
2023/06/16 10:12:46;;;;;;;4.55;2.28;;;;;;;29.47;27.04;101541.22;6246118;23;20086;-81
2023/06/16 10:15:15;;;;;;;5.13;2.00;;;;;;;30.14;25.55;101538.59;6247028;23;20491;-79
2023/06/16 10:17:42;;;;;;;4.22;1.85;;;;;;;28.92;27.48;101537.03;6249845;23;20199;-80
2023/06/16 10:20:13;;;;;;;7.45;2.03;;;;;;;28.66;27.32;101535.25;6169047;23;20008;-80
2023/06/16 10:22:39;;;;;;;5.60;2.13;;;;;;;28.59;27.62;101540.06;6192988;23;20050;-80
2023/06/16 10:25:06;;;;;;;5.53;2.20;;;;;;;28.74;27.53;101536.97;6218574;23;20008;-80
2023/06/16 10:27:33;;;;;;;2.40;2.20;;;;;;;29.16;25.82;101534.50;6245609;23;20051;-80
2023/06/16 10:30:03;;;;;;;3.67;2.00;;;;;;;28.78;27.46;101538.25;6245637;23;20012;-81
2023/06/16 10:32:29;;;;;;;2.20;2.05;;;;;;;29.29;27.45;101533.56;6244501;23;20015;-81
2023/06/16 10:34:57;;;;;;;5.50;2.80;;;;;;;29.77;27.17;101520.75;6168771;23;20455;-81
2023/06/16 10:37:25;;;;;;;3.72;2.20;;;;;;;29.74;27.87;101527.69;6219066;23;20008;-81
2023/06/16 10:39:55;;;;;;;5.85;1.90;;;;;;;29.07;26.48;101536.75;6219068;23;20026;-81
2023/06/16 10:42:21;;;;;;;3.72;2.00;;;;;;;28.73;26.16;101522.00;6218480;23;20015;-80
2023/06/16 10:44:46;;;;;;;2.30;2.10;;;;;;;29.04;26.22;101519.41;6168833;23;20016;-81
2023/06/16 10:47:12;;;;;;;2.78;1.85;;;;;;;29.31;27.47;101514.44;6193615;23;20023;-81
2023/06/16 10:50:00;;;;;;;6.40;2.00;;;;;;;29.51;26.48;101517.06;6245961;23;20454;-81
2023/06/16 10:52:28;;;;;;;3.05;2.38;;;;;;;29.18;28.48;101514.56;6245581;22;20020;-81
2023/06/16 10:54:55;;;;;;;3.92;1.90;;;;;;;29.63;27.42;101515.25;6193799;23;20016;-81
2023/06/16 10:57:21;;;;;;;1.90;1.67;;;;;;;30.23;25.82;101511.75;6217596;23;20086;-81
2023/06/16 11:00:12;;;;;;;3.58;2.30;;;;;;;29.11;27.47;101509.81;6194526;23;20012;-81
2023/06/16 11:02:48;;;;;;;2.80;2.28;;;;;;;29.20;27.29;101506.72;6195203;23;20103;-82
2023/06/16 11:05:14;;;;;;;5.70;2.00;;;;;;;29.58;28.32;101509.44;6193295;23;20012;-81
2023/06/16 11:07:47;;;;;;;4.65;2.20;;;;;;;29.05;27.90;101499.44;6218825;23;20004;-81
2023/06/16 11:10:18;;;;;;;2.97;2.15;;;;;;;29.48;26.94;101500.59;6194842;23;20103;-81
2023/06/16 11:12:46;;;;;;;2.88;2.00;;;;;;;30.02;26.37;101498.09;6244961;23;20004;-81
2023/06/16 11:15:12;;;;;;;5.28;2.20;;;;;;;30.25;25.74;101508.69;6218094;23;20057;-81
2023/06/16 11:17:37;;;;;;;4.63;2.28;;;;;;;29.95;25.52;101502.97;6193398;23;20043;-83
2023/06/16 11:20:06;;;;;;;11.95;2.40;;;;;;;29.43;27.41;101490.00;6218276;23;20017;-82
2023/06/16 11:22:33;;;;;;;5.57;2.30;;;;;;;29.59;26.62;101504.63;6194194;23;20455;-81
2023/06/16 11:25:00;;;;;;;4.28;2.08;;;;;;;29.75;26.87;101494.72;6193112;23;20077;-81